sensor_id;sensor_type;location;lat;lon;timestamp;pressure;altitude;pressure_sealevel;temperature
64184;BMP280;50485;49.768;8.636;2022-07-24T00:01:22;100581.09;;;24.63
64184;BMP280;50485;49.768;8.636;2022-07-24T00:03:47;100584.63;;;24.60
64184;BMP280;50485;49.768;8.636;2022-07-24T00:06:12;100574.84;;;24.56
64184;BMP280;50485;49.768;8.636;2022-07-24T00:08:37;100586.97;;;24.58
64184;BMP280;50485;49.768;8.636;2022-07-24T00:11:03;100579.53;;;24.55
64184;BMP280;50485;49.768;8.636;2022-07-24T00:13:28;100581.50;;;24.55
64184;BMP280;50485;49.768;8.636;2022-07-24T00:15:53;100579.94;;;24.50
64184;BMP280;50485;49.768;8.636;2022-07-24T00:18:19;100582.69;;;24.50
64184;BMP280;50485;49.768;8.636;2022-07-24T00:20:44;100581.94;;;24.39
64184;BMP280;50485;49.768;8.636;2022-07-24T00:23:11;100583.09;;;24.45
64184;BMP280;50485;49.768;8.636;2022-07-24T00:25:36;100583.88;;;24.49
64184;BMP280;50485;49.768;8.636;2022-07-24T00:28:01;100575.66;;;24.46
64184;BMP280;50485;49.768;8.636;2022-07-24T00:30:26;100576.03;;;24.40
64184;BMP280;50485;49.768;8.636;2022-07-24T00:32:51;100570.53;;;24.44
64184;BMP280;50485;49.768;8.636;2022-07-24T00:35:16;100576.03;;;24.44
64184;BMP280;50485;49.768;8.636;2022-07-24T00:37:42;100572.94;;;24.35
64184;BMP280;50485;49.768;8.636;2022-07-24T00:40:08;100570.97;;;24.39
64184;BMP280;50485;49.768;8.636;2022-07-24T00:42:33;100567.47;;;24.35
64184;BMP280;50485;49.768;8.636;2022-07-24T00:44:58;100570.19;;;24.31
64184;BMP280;50485;49.768;8.636;2022-07-24T00:47:23;100576.81;;;24.27
64184;BMP280;50485;49.768;8.636;2022-07-24T00:49:49;100567.47;;;24.28
64184;BMP280;50485;49.768;8.636;2022-07-24T00:52:14;100563.56;;;24.29
64184;BMP280;50485;49.768;8.636;2022-07-24T00:54:39;100573.31;;;24.23
64184;BMP280;50485;49.768;8.636;2022-07-24T00:57:04;100579.22;;;24.25
64184;BMP280;50485;49.768;8.636;2022-07-24T00:59:30;100576.84;;;24.20
64184;BMP280;50485;49.768;8.636;2022-07-24T01:01:55;100572.16;;;24.20
64184;BMP280;50485;49.768;8.636;2022-07-24T01:04:21;100574.09;;;24.23
64184;BMP280;50485;49.768;8.636;2022-07-24T01:06:46;100574.91;;;24.17
64184;BMP280;50485;49.768;8.636;2022-07-24T01:09:12;100564.31;;;24.19
64184;BMP280;50485;49.768;8.636;2022-07-24T01:11:38;100562.78;;;24.14
64184;BMP280;50485;49.768;8.636;2022-07-24T01:14:03;100563.97;;;24.17
64184;BMP280;50485;49.768;8.636;2022-07-24T01:16:28;100558.09;;;24.15
64184;BMP280;50485;49.768;8.636;2022-07-24T01:18:53;100562.00;;;24.14
64184;BMP280;50485;49.768;8.636;2022-07-24T01:21:19;100560.84;;;24.15
64184;BMP280;50485;49.768;8.636;2022-07-24T01:23:44;100562.78;;;24.14
64184;BMP280;50485;49.768;8.636;2022-07-24T01:26:09;100551.84;;;24.07
64184;BMP280;50485;49.768;8.636;2022-07-24T01:28:35;100560.84;;;24.07
64184;BMP280;50485;49.768;8.636;2022-07-24T01:31:00;100562.00;;;24.10
64184;BMP280;50485;49.768;8.636;2022-07-24T01:33:26;100555.38;;;24.00
64184;BMP280;50485;49.768;8.636;2022-07-24T01:35:51;100558.09;;;24.07
64184;BMP280;50485;49.768;8.636;2022-07-24T01:40:42;100560.41;;;23.98
64184;BMP280;50485;49.768;8.636;2022-07-24T01:43:07;100553.78;;;24.06
64184;BMP280;50485;49.768;8.636;2022-07-24T01:45:32;100558.84;;;24.04
64184;BMP280;50485;49.768;8.636;2022-07-24T01:47:58;100564.31;;;24.04
64184;BMP280;50485;49.768;8.636;2022-07-24T01:50:23;100560.41;;;23.98
64184;BMP280;50485;49.768;8.636;2022-07-24T01:52:48;100554.94;;;23.98
64184;BMP280;50485;49.768;8.636;2022-07-24T01:55:14;100560.84;;;24.00
64184;BMP280;50485;49.768;8.636;2022-07-24T01:57:39;100560.41;;;23.95
64184;BMP280;50485;49.768;8.636;2022-07-24T02:00:05;100557.31;;;23.93
64184;BMP280;50485;49.768;8.636;2022-07-24T02:02:30;100557.69;;;23.91
64184;BMP280;50485;49.768;8.636;2022-07-24T02:04:56;100552.63;;;23.93
64184;BMP280;50485;49.768;8.636;2022-07-24T02:07:21;100553.00;;;23.88
64184;BMP280;50485;49.768;8.636;2022-07-24T02:09:46;100553.38;;;23.90
64184;BMP280;50485;49.768;8.636;2022-07-24T02:12:11;100547.91;;;23.83
64184;BMP280;50485;49.768;8.636;2022-07-24T02:14:36;100550.66;;;23.79
64184;BMP280;50485;49.768;8.636;2022-07-24T02:17:02;100554.16;;;23.80
64184;BMP280;50485;49.768;8.636;2022-07-24T02:19:27;100560.41;;;23.81
64184;BMP280;50485;49.768;8.636;2022-07-24T02:21:52;100554.16;;;23.80
64184;BMP280;50485;49.768;8.636;2022-07-24T02:24:17;100556.50;;;23.74
64184;BMP280;50485;49.768;8.636;2022-07-24T02:26:43;100552.19;;;23.70
64184;BMP280;50485;49.768;8.636;2022-07-24T02:29:08;100558.06;;;23.72
64184;BMP280;50485;49.768;8.636;2022-07-24T02:31:33;100555.72;;;23.74
64184;BMP280;50485;49.768;8.636;2022-07-24T02:33:58;100556.50;;;23.71
64184;BMP280;50485;49.768;8.636;2022-07-24T02:36:24;100558.06;;;23.68
64184;BMP280;50485;49.768;8.636;2022-07-24T02:38:49;100558.44;;;23.53
64184;BMP280;50485;49.768;8.636;2022-07-24T02:41:14;100557.66;;;23.59
64184;BMP280;50485;49.768;8.636;2022-07-24T02:43:39;100565.44;;;23.61
64184;BMP280;50485;49.768;8.636;2022-07-24T02:46:05;100557.25;;;23.61
64184;BMP280;50485;49.768;8.636;2022-07-24T02:48:30;100559.63;;;23.59
64184;BMP280;50485;49.768;8.636;2022-07-24T02:50:55;100561.16;;;23.49
64184;BMP280;50485;49.768;8.636;2022-07-24T02:53:20;100561.16;;;23.53
64184;BMP280;50485;49.768;8.636;2022-07-24T02:55:45;100558.03;;;23.51
64184;BMP280;50485;49.768;8.636;2022-07-24T02:58:11;100560.38;;;23.52
64184;BMP280;50485;49.768;8.636;2022-07-24T03:00:36;100559.59;;;23.52
64184;BMP280;50485;49.768;8.636;2022-07-24T03:03:01;100561.91;;;23.50
64184;BMP280;50485;49.768;8.636;2022-07-24T03:05:27;100564.28;;;23.48
64184;BMP280;50485;49.768;8.636;2022-07-24T03:07:52;100569.75;;;23.48
64184;BMP280;50485;49.768;8.636;2022-07-24T03:10:17;100562.69;;;23.46
64184;BMP280;50485;49.768;8.636;2022-07-24T03:12:43;100566.63;;;23.49
64184;BMP280;50485;49.768;8.636;2022-07-24T03:15:09;100563.91;;;23.45
64184;BMP280;50485;49.768;8.636;2022-07-24T03:17:34;100564.66;;;23.46
64184;BMP280;50485;49.768;8.636;2022-07-24T03:20:00;100565.44;;;23.50
64184;BMP280;50485;49.768;8.636;2022-07-24T03:22:25;100568.97;;;23.51
64184;BMP280;50485;49.768;8.636;2022-07-24T03:24:51;100568.19;;;23.50
64184;BMP280;50485;49.768;8.636;2022-07-24T03:27:16;100563.13;;;23.52
64184;BMP280;50485;49.768;8.636;2022-07-24T03:29:41;100573.66;;;23.54
64184;BMP280;50485;49.768;8.636;2022-07-24T03:32:06;100573.28;;;23.55
64184;BMP280;50485;49.768;8.636;2022-07-24T03:34:31;100570.16;;;23.57
64184;BMP280;50485;49.768;8.636;2022-07-24T03:36:57;100577.19;;;23.54
64184;BMP280;50485;49.768;8.636;2022-07-24T03:39:22;100581.88;;;23.57
64184;BMP280;50485;49.768;8.636;2022-07-24T03:41:47;100581.50;;;23.59
64184;BMP280;50485;49.768;8.636;2022-07-24T03:44:12;100573.66;;;23.57
64184;BMP280;50485;49.768;8.636;2022-07-24T03:46:37;100583.06;;;23.56
64184;BMP280;50485;49.768;8.636;2022-07-24T03:49:02;100579.56;;;23.59
64184;BMP280;50485;49.768;8.636;2022-07-24T03:51:28;100585.81;;;23.60
64184;BMP280;50485;49.768;8.636;2022-07-24T03:53:53;100583.44;;;23.55
64184;BMP280;50485;49.768;8.636;2022-07-24T03:56:18;100590.06;;;23.50
64184;BMP280;50485;49.768;8.636;2022-07-24T03:58:43;100581.47;;;23.44
64184;BMP280;50485;49.768;8.636;2022-07-24T04:01:09;100590.47;;;23.41
64184;BMP280;50485;49.768;8.636;2022-07-24T04:03:34;100578.72;;;23.37
64184;BMP280;50485;49.768;8.636;2022-07-24T04:06:00;100582.59;;;23.40
64184;BMP280;50485;49.768;8.636;2022-07-24T04:08:26;100584.56;;;23.36
64184;BMP280;50485;49.768;8.636;2022-07-24T04:10:51;100584.53;;;23.32
64184;BMP280;50485;49.768;8.636;2022-07-24T04:13:21;100593.53;;;23.33
64184;BMP280;50485;49.768;8.636;2022-07-24T04:15:47;100592.38;;;23.34
64184;BMP280;50485;49.768;8.636;2022-07-24T04:18:12;100586.91;;;23.34
64184;BMP280;50485;49.768;8.636;2022-07-24T04:20:37;100590.81;;;23.36
64184;BMP280;50485;49.768;8.636;2022-07-24T04:23:02;100588.88;;;23.37
64184;BMP280;50485;49.768;8.636;2022-07-24T04:25:27;100588.47;;;23.42
64184;BMP280;50485;49.768;8.636;2022-07-24T04:27:52;100595.50;;;23.39
64184;BMP280;50485;49.768;8.636;2022-07-24T04:30:18;100584.56;;;23.46
64184;BMP280;50485;49.768;8.636;2022-07-24T04:32:43;100584.59;;;23.50
64184;BMP280;50485;49.768;8.636;2022-07-24T04:35:08;100584.59;;;23.54
64184;BMP280;50485;49.768;8.636;2022-07-24T04:37:33;100580.72;;;23.55
64184;BMP280;50485;49.768;8.636;2022-07-24T04:39:58;100581.50;;;23.62
64184;BMP280;50485;49.768;8.636;2022-07-24T04:42:24;100580.75;;;23.72
64184;BMP280;50485;49.768;8.636;2022-07-24T04:44:49;100586.22;;;23.76
64184;BMP280;50485;49.768;8.636;2022-07-24T04:47:14;100576.06;;;23.87
64184;BMP280;50485;49.768;8.636;2022-07-24T04:49:39;100570.59;;;23.94
64184;BMP280;50485;49.768;8.636;2022-07-24T04:52:04;100579.22;;;24.00
64184;BMP280;50485;49.768;8.636;2022-07-24T04:54:30;100568.63;;;24.05
64184;BMP280;50485;49.768;8.636;2022-07-24T04:56:55;100579.22;;;24.14
64184;BMP280;50485;49.768;8.636;2022-07-24T04:59:20;100585.06;;;24.20
64184;BMP280;50485;49.768;8.636;2022-07-24T05:01:45;100590.94;;;24.29
64184;BMP280;50485;49.768;8.636;2022-07-24T05:04:11;100588.94;;;24.36
64184;BMP280;50485;49.768;8.636;2022-07-24T05:06:36;100592.47;;;24.48
64184;BMP280;50485;49.768;8.636;2022-07-24T05:09:01;100594.81;;;24.53
64184;BMP280;50485;49.768;8.636;2022-07-24T05:11:27;100599.84;;;24.61
64184;BMP280;50485;49.768;8.636;2022-07-24T05:13:52;100593.22;;;24.69
64184;BMP280;50485;49.768;8.636;2022-07-24T05:16:17;100593.97;;;24.77
64184;BMP280;50485;49.768;8.636;2022-07-24T05:18:42;100593.94;;;24.88
64184;BMP280;50485;49.768;8.636;2022-07-24T05:21:07;100591.16;;;24.95
64184;BMP280;50485;49.768;8.636;2022-07-24T05:23:33;100584.47;;;25.03
64184;BMP280;50485;49.768;8.636;2022-07-24T05:25:58;100600.47;;;25.15
64184;BMP280;50485;49.768;8.636;2022-07-24T05:28:23;100593.00;;;25.26
64184;BMP280;50485;49.768;8.636;2022-07-24T05:30:48;100596.44;;;25.37
64184;BMP280;50485;49.768;8.636;2022-07-24T05:33:13;100606.22;;;25.46
64184;BMP280;50485;49.768;8.636;2022-07-24T05:35:39;100606.94;;;25.53
64184;BMP280;50485;49.768;8.636;2022-07-24T05:38:04;100607.69;;;25.61
64184;BMP280;50485;49.768;8.636;2022-07-24T05:40:29;100600.59;;;25.67
64184;BMP280;50485;49.768;8.636;2022-07-24T05:42:54;100609.16;;;25.76
64184;BMP280;50485;49.768;8.636;2022-07-24T05:45:19;100605.53;;;25.83
64184;BMP280;50485;49.768;8.636;2022-07-24T05:47:44;100597.28;;;25.90
64184;BMP280;50485;49.768;8.636;2022-07-24T05:50:10;100592.50;;;25.97
64184;BMP280;50485;49.768;8.636;2022-07-24T05:52:36;100597.16;;;26.04
64184;BMP280;50485;49.768;8.636;2022-07-24T05:55:02;100599.38;;;26.16
64184;BMP280;50485;49.768;8.636;2022-07-24T05:57:27;100604.50;;;26.18
64184;BMP280;50485;49.768;8.636;2022-07-24T05:59:52;100601.31;;;26.19
64184;BMP280;50485;49.768;8.636;2022-07-24T06:02:17;100604.88;;;26.16
64184;BMP280;50485;49.768;8.636;2022-07-24T06:04:43;100616.66;;;26.17
64184;BMP280;50485;49.768;8.636;2022-07-24T06:07:11;100618.19;;;26.25
64184;BMP280;50485;49.768;8.636;2022-07-24T06:09:37;100608.66;;;26.33
64184;BMP280;50485;49.768;8.636;2022-07-24T06:12:02;100616.81;;;26.44
64184;BMP280;50485;49.768;8.636;2022-07-24T06:14:28;100612.78;;;26.48
64184;BMP280;50485;49.768;8.636;2022-07-24T06:16:53;100610.38;;;26.57
64184;BMP280;50485;49.768;8.636;2022-07-24T06:19:18;100620.88;;;26.66
64184;BMP280;50485;49.768;8.636;2022-07-24T06:21:43;100615.34;;;26.69
64184;BMP280;50485;49.768;8.636;2022-07-24T06:24:08;100623.91;;;26.75
64184;BMP280;50485;49.768;8.636;2022-07-24T06:26:33;100629.31;;;26.82
64184;BMP280;50485;49.768;8.636;2022-07-24T06:28:59;100631.63;;;26.87
64184;BMP280;50485;49.768;8.636;2022-07-24T06:31:24;100633.53;;;26.94
64184;BMP280;50485;49.768;8.636;2022-07-24T06:33:49;100636.06;;;27.12
64184;BMP280;50485;49.768;8.636;2022-07-24T06:36:14;100638.44;;;27.10
64184;BMP280;50485;49.768;8.636;2022-07-24T06:38:39;100638.31;;;27.17
64184;BMP280;50485;49.768;8.636;2022-07-24T06:41:05;100629.78;;;27.11
64184;BMP280;50485;49.768;8.636;2022-07-24T06:43:30;100627.28;;;27.20
64184;BMP280;50485;49.768;8.636;2022-07-24T06:45:55;100629.16;;;27.27
64184;BMP280;50485;49.768;8.636;2022-07-24T06:48:20;100630.63;;;27.35
64184;BMP280;50485;49.768;8.636;2022-07-24T06:50:45;100631.75;;;27.37
64184;BMP280;50485;49.768;8.636;2022-07-24T06:53:11;100621.84;;;27.44
64184;BMP280;50485;49.768;8.636;2022-07-24T06:55:36;100622.75;;;27.60
64184;BMP280;50485;49.768;8.636;2022-07-24T06:58:01;100618.75;;;27.65
64184;BMP280;50485;49.768;8.636;2022-07-24T07:00:26;100604.28;;;27.61
64184;BMP280;50485;49.768;8.636;2022-07-24T07:02:51;100605.31;;;27.70
64184;BMP280;50485;49.768;8.636;2022-07-24T07:05:17;100604.63;;;27.63
64184;BMP280;50485;49.768;8.636;2022-07-24T07:07:43;100611.22;;;27.69
64184;BMP280;50485;49.768;8.636;2022-07-24T07:10:08;100610.81;;;27.70
64184;BMP280;50485;49.768;8.636;2022-07-24T07:12:34;100612.31;;;27.75
64184;BMP280;50485;49.768;8.636;2022-07-24T07:14:59;100605.97;;;27.78
64184;BMP280;50485;49.768;8.636;2022-07-24T07:17:24;100612.06;;;27.89
64184;BMP280;50485;49.768;8.636;2022-07-24T07:19:49;100616.38;;;27.90
64184;BMP280;50485;49.768;8.636;2022-07-24T07:22:15;100612.72;;;27.97
64184;BMP280;50485;49.768;8.636;2022-07-24T07:24:40;100613.28;;;28.12
64184;BMP280;50485;49.768;8.636;2022-07-24T07:27:05;100602.19;;;28.15
64184;BMP280;50485;49.768;8.636;2022-07-24T07:29:30;100606.41;;;28.20
64184;BMP280;50485;49.768;8.636;2022-07-24T07:31:55;100606.25;;;28.50
64184;BMP280;50485;49.768;8.636;2022-07-24T07:34:20;100603.06;;;28.52
64184;BMP280;50485;49.768;8.636;2022-07-24T07:36:46;100607.00;;;28.51
64184;BMP280;50485;49.768;8.636;2022-07-24T07:39:11;100603.53;;;28.66
64184;BMP280;50485;49.768;8.636;2022-07-24T07:41:36;100607.25;;;28.96
64184;BMP280;50485;49.768;8.636;2022-07-24T07:44:01;100599.63;;;29.20
64184;BMP280;50485;49.768;8.636;2022-07-24T07:46:27;100605.59;;;28.62
64184;BMP280;50485;49.768;8.636;2022-07-24T07:48:52;100601.31;;;28.61
64184;BMP280;50485;49.768;8.636;2022-07-24T07:51:17;100607.03;;;28.70
64184;BMP280;50485;49.768;8.636;2022-07-24T07:53:42;100617.53;;;28.75
64184;BMP280;50485;49.768;8.636;2022-07-24T07:56:08;100607.91;;;28.84
64184;BMP280;50485;49.768;8.636;2022-07-24T07:58:33;100609.34;;;28.92
64184;BMP280;50485;49.768;8.636;2022-07-24T08:00:58;100616.16;;;29.03
64184;BMP280;50485;49.768;8.636;2022-07-24T08:03:23;100620.50;;;29.37
64184;BMP280;50485;49.768;8.636;2022-07-24T08:05:49;100623.78;;;29.16
64184;BMP280;50485;49.768;8.636;2022-07-24T08:08:14;100618.94;;;29.20
64184;BMP280;50485;49.768;8.636;2022-07-24T08:10:39;100615.69;;;29.25
64184;BMP280;50485;49.768;8.636;2022-07-24T08:13:04;100615.97;;;29.63
64184;BMP280;50485;49.768;8.636;2022-07-24T08:15:30;100618.53;;;29.37
64184;BMP280;50485;49.768;8.636;2022-07-24T08:17:55;100621.13;;;29.44
64184;BMP280;50485;49.768;8.636;2022-07-24T08:20:21;100612.63;;;29.84
64184;BMP280;50485;49.768;8.636;2022-07-24T08:22:47;100612.63;;;30.00
64184;BMP280;50485;49.768;8.636;2022-07-24T08:25:12;100616.25;;;30.26
64184;BMP280;50485;49.768;8.636;2022-07-24T08:27:37;100612.31;;;29.82
64184;BMP280;50485;49.768;8.636;2022-07-24T08:30:03;100612.22;;;29.86
64184;BMP280;50485;49.768;8.636;2022-07-24T08:32:29;100618.41;;;30.06
64184;BMP280;50485;49.768;8.636;2022-07-24T08:34:54;100610.44;;;30.08
64184;BMP280;50485;49.768;8.636;2022-07-24T08:37:19;100607.44;;;30.02
64184;BMP280;50485;49.768;8.636;2022-07-24T08:39:45;100611.78;;;30.45
64184;BMP280;50485;49.768;8.636;2022-07-24T08:42:10;100603.41;;;30.61
64184;BMP280;50485;49.768;8.636;2022-07-24T08:44:37;100602.19;;;30.62
64184;BMP280;50485;49.768;8.636;2022-07-24T08:47:02;100609.34;;;30.89
64184;BMP280;50485;49.768;8.636;2022-07-24T08:49:29;100607.81;;;30.46
64184;BMP280;50485;49.768;8.636;2022-07-24T08:51:55;100605.13;;;30.97
64184;BMP280;50485;49.768;8.636;2022-07-24T08:54:23;100598.34;;;30.98
64184;BMP280;50485;49.768;8.636;2022-07-24T08:56:48;100607.66;;;30.78
64184;BMP280;50485;49.768;8.636;2022-07-24T08:59:20;100596.72;;;30.75
64184;BMP280;50485;49.768;8.636;2022-07-24T09:01:48;100600.47;;;30.94
64184;BMP280;50485;49.768;8.636;2022-07-24T09:06:58;100605.59;;;31.55
64184;BMP280;50485;49.768;8.636;2022-07-24T09:09:24;100592.81;;;31.92
64184;BMP280;50485;49.768;8.636;2022-07-24T09:11:49;100602.06;;;31.54
64184;BMP280;50485;49.768;8.636;2022-07-24T09:14:14;100601.31;;;31.76
64184;BMP280;50485;49.768;8.636;2022-07-24T09:17:00;100590.72;;;32.18
64184;BMP280;50485;49.768;8.636;2022-07-24T09:19:26;100603.34;;;31.63
64184;BMP280;50485;49.768;8.636;2022-07-24T09:21:51;100593.50;;;31.62
64184;BMP280;50485;49.768;8.636;2022-07-24T09:24:19;100596.03;;;31.69
64184;BMP280;50485;49.768;8.636;2022-07-24T09:26:46;100590.34;;;32.07
64184;BMP280;50485;49.768;8.636;2022-07-24T09:29:12;100598.13;;;31.99
64184;BMP280;50485;49.768;8.636;2022-07-24T09:31:53;100605.41;;;32.27
64184;BMP280;50485;49.768;8.636;2022-07-24T09:34:19;100600.09;;;32.73
64184;BMP280;50485;49.768;8.636;2022-07-24T09:37:01;100608.34;;;32.64
64184;BMP280;50485;49.768;8.636;2022-07-24T09:39:27;100603.25;;;32.93
64184;BMP280;50485;49.768;8.636;2022-07-24T09:41:54;100606.44;;;33.68
64184;BMP280;50485;49.768;8.636;2022-07-24T09:44:19;100600.84;;;34.05
64184;BMP280;50485;49.768;8.636;2022-07-24T09:46:45;100599.31;;;33.95
64184;BMP280;50485;49.768;8.636;2022-07-24T09:49:17;100603.03;;;34.01
64184;BMP280;50485;49.768;8.636;2022-07-24T09:51:43;100600.09;;;34.56
64184;BMP280;50485;49.768;8.636;2022-07-24T09:54:08;100595.16;;;34.83
64184;BMP280;50485;49.768;8.636;2022-07-24T09:56:34;100593.66;;;35.21
64184;BMP280;50485;49.768;8.636;2022-07-24T09:59:00;100593.09;;;35.70
64184;BMP280;50485;49.768;8.636;2022-07-24T10:01:27;100605.13;;;36.20
64184;BMP280;50485;49.768;8.636;2022-07-24T10:03:53;100597.03;;;35.78
64184;BMP280;50485;49.768;8.636;2022-07-24T10:06:20;100593.34;;;36.31
64184;BMP280;50485;49.768;8.636;2022-07-24T10:08:47;100601.34;;;36.23
64184;BMP280;50485;49.768;8.636;2022-07-24T10:11:13;100587.31;;;36.67
64184;BMP280;50485;49.768;8.636;2022-07-24T10:13:38;100593.66;;;36.33
64184;BMP280;50485;49.768;8.636;2022-07-24T10:21:06;100586.38;;;32.17
64184;BMP280;50485;49.768;8.636;2022-07-24T10:23:34;100577.41;;;31.69
64184;BMP280;50485;49.768;8.636;2022-07-24T10:26:05;100564.47;;;31.88
64184;BMP280;50485;49.768;8.636;2022-07-24T10:30:58;100565.16;;;31.45
64184;BMP280;50485;49.768;8.636;2022-07-24T10:33:24;100548.94;;;31.22
64184;BMP280;50485;49.768;8.636;2022-07-24T10:35:49;100550.59;;;31.19
64184;BMP280;50485;49.768;8.636;2022-07-24T10:38:17;100541.25;;;30.78
64184;BMP280;50485;49.768;8.636;2022-07-24T10:40:48;100543.66;;;31.02
64184;BMP280;50485;49.768;8.636;2022-07-24T10:43:17;100537.34;;;31.01
64184;BMP280;50485;49.768;8.636;2022-07-24T10:45:43;100534.63;;;31.36
64184;BMP280;50485;49.768;8.636;2022-07-24T10:56:14;100527.50;;;30.88
64184;BMP280;50485;49.768;8.636;2022-07-24T11:01:26;100516.22;;;31.42
64184;BMP280;50485;49.768;8.636;2022-07-24T11:03:52;100518.38;;;31.25
64184;BMP280;50485;49.768;8.636;2022-07-24T11:06:17;100517.38;;;31.53
64184;BMP280;50485;49.768;8.636;2022-07-24T11:11:12;100510.44;;;31.49
64184;BMP280;50485;49.768;8.636;2022-07-24T11:21:27;100501.72;;;31.60
64184;BMP280;50485;49.768;8.636;2022-07-24T11:24:13;100493.69;;;31.52
64184;BMP280;50485;49.768;8.636;2022-07-24T11:26:39;100493.03;;;31.48
64184;BMP280;50485;49.768;8.636;2022-07-24T11:31:39;100499.41;;;31.36
64184;BMP280;50485;49.768;8.636;2022-07-24T11:34:04;100484.00;;;31.35
64184;BMP280;50485;49.768;8.636;2022-07-24T11:36:30;100487.28;;;31.43
64184;BMP280;50485;49.768;8.636;2022-07-24T11:38:56;100474.78;;;31.38
64184;BMP280;50485;49.768;8.636;2022-07-24T11:41:22;100478.06;;;31.46
64184;BMP280;50485;49.768;8.636;2022-07-24T11:43:53;100477.19;;;31.49
64184;BMP280;50485;49.768;8.636;2022-07-24T11:46:34;100467.28;;;31.26
64184;BMP280;50485;49.768;8.636;2022-07-24T11:49:03;100468.94;;;31.36
64184;BMP280;50485;49.768;8.636;2022-07-24T11:51:29;100458.91;;;31.17
64184;BMP280;50485;49.768;8.636;2022-07-24T11:53:54;100459.47;;;31.12
64184;BMP280;50485;49.768;8.636;2022-07-24T11:56:19;100453.03;;;31.15
64184;BMP280;50485;49.768;8.636;2022-07-24T11:58:44;100441.97;;;31.15
64184;BMP280;50485;49.768;8.636;2022-07-24T12:01:22;100444.44;;;31.13
64184;BMP280;50485;49.768;8.636;2022-07-24T12:06:16;100439.19;;;31.28
64184;BMP280;50485;49.768;8.636;2022-07-24T12:08:42;100429.38;;;31.14
64184;BMP280;50485;49.768;8.636;2022-07-24T12:11:07;100439.81;;;30.97
64184;BMP280;50485;49.768;8.636;2022-07-24T12:13:33;100429.34;;;30.79
64184;BMP280;50485;49.768;8.636;2022-07-24T12:15:58;100438.78;;;30.69
64184;BMP280;50485;49.768;8.636;2022-07-24T12:18:23;100424.28;;;30.65
64184;BMP280;50485;49.768;8.636;2022-07-24T12:20:49;100421.25;;;30.72
64184;BMP280;50485;49.768;8.636;2022-07-24T12:23:16;100422.94;;;30.44
64184;BMP280;50485;49.768;8.636;2022-07-24T12:25:43;100413.50;;;30.67
64184;BMP280;50485;49.768;8.636;2022-07-24T12:28:10;100403.91;;;30.72
64184;BMP280;50485;49.768;8.636;2022-07-24T12:30:36;100400.94;;;30.66
64184;BMP280;50485;49.768;8.636;2022-07-24T12:33:06;100392.97;;;30.68
64184;BMP280;50485;49.768;8.636;2022-07-24T12:35:33;100400.56;;;30.64
64184;BMP280;50485;49.768;8.636;2022-07-24T12:37:59;100399.50;;;30.36
64184;BMP280;50485;49.768;8.636;2022-07-24T12:40:25;100400.91;;;30.15
64184;BMP280;50485;49.768;8.636;2022-07-24T12:43:06;100400.50;;;30.42
64184;BMP280;50485;49.768;8.636;2022-07-24T12:45:31;100389.50;;;30.64
64184;BMP280;50485;49.768;8.636;2022-07-24T12:50:34;100387.19;;;30.75
64184;BMP280;50485;49.768;8.636;2022-07-24T12:53:07;100391.38;;;30.67
64184;BMP280;50485;49.768;8.636;2022-07-24T12:55:32;100381.78;;;30.72
64184;BMP280;50485;49.768;8.636;2022-07-24T12:57:58;100380.69;;;30.69
64184;BMP280;50485;49.768;8.636;2022-07-24T13:00:24;100373.13;;;30.70
64184;BMP280;50485;49.768;8.636;2022-07-24T13:02:49;100382.97;;;30.71
64184;BMP280;50485;49.768;8.636;2022-07-24T13:05:14;100377.31;;;30.74
64184;BMP280;50485;49.768;8.636;2022-07-24T13:07:39;100376.78;;;30.79
64184;BMP280;50485;49.768;8.636;2022-07-24T13:10:05;100378.13;;;30.62
64184;BMP280;50485;49.768;8.636;2022-07-24T13:12:30;100374.78;;;30.67
64184;BMP280;50485;49.768;8.636;2022-07-24T13:14:55;100371.25;;;30.67
64184;BMP280;50485;49.768;8.636;2022-07-24T13:17:20;100370.25;;;30.73
64184;BMP280;50485;49.768;8.636;2022-07-24T13:19:49;100364.41;;;30.71
64184;BMP280;50485;49.768;8.636;2022-07-24T13:22:15;100362.84;;;30.70
64184;BMP280;50485;49.768;8.636;2022-07-24T13:24:40;100361.44;;;30.66
64184;BMP280;50485;49.768;8.636;2022-07-24T13:27:07;100357.00;;;30.68
64184;BMP280;50485;49.768;8.636;2022-07-24T13:29:32;100349.00;;;30.70
64184;BMP280;50485;49.768;8.636;2022-07-24T13:32:01;100343.78;;;30.72
64184;BMP280;50485;49.768;8.636;2022-07-24T13:34:26;100345.81;;;30.72
64184;BMP280;50485;49.768;8.636;2022-07-24T13:36:53;100345.03;;;30.71
64184;BMP280;50485;49.768;8.636;2022-07-24T13:39:18;100344.13;;;30.74
64184;BMP280;50485;49.768;8.636;2022-07-24T13:41:44;100344.47;;;30.76
64184;BMP280;50485;49.768;8.636;2022-07-24T13:44:09;100335.81;;;30.74
64184;BMP280;50485;49.768;8.636;2022-07-24T13:46:34;100337.81;;;30.74
64184;BMP280;50485;49.768;8.636;2022-07-24T13:49:00;100330.63;;;30.76
64184;BMP280;50485;49.768;8.636;2022-07-24T13:51:25;100321.44;;;30.79
64184;BMP280;50485;49.768;8.636;2022-07-24T13:53:51;100316.66;;;30.80
64184;BMP280;50485;49.768;8.636;2022-07-24T13:56:16;100317.44;;;30.80
64184;BMP280;50485;49.768;8.636;2022-07-24T13:58:41;100311.03;;;30.83
64184;BMP280;50485;49.768;8.636;2022-07-24T14:01:08;100319.06;;;30.78
64184;BMP280;50485;49.768;8.636;2022-07-24T14:03:33;100313.13;;;30.79
64184;BMP280;50485;49.768;8.636;2022-07-24T14:05:59;100320.53;;;30.82
64184;BMP280;50485;49.768;8.636;2022-07-24T14:08:24;100311.13;;;30.80
64184;BMP280;50485;49.768;8.636;2022-07-24T14:10:50;100304.63;;;30.74
64184;BMP280;50485;49.768;8.636;2022-07-24T14:13:15;100289.91;;;30.77
64184;BMP280;50485;49.768;8.636;2022-07-24T14:15:40;100300.53;;;30.78
64184;BMP280;50485;49.768;8.636;2022-07-24T14:18:05;100291.00;;;30.79
64184;BMP280;50485;49.768;8.636;2022-07-24T14:20:31;100286.69;;;30.78
64184;BMP280;50485;49.768;8.636;2022-07-24T14:22:56;100287.56;;;30.75
64184;BMP280;50485;49.768;8.636;2022-07-24T14:25:21;100283.59;;;30.76
64184;BMP280;50485;49.768;8.636;2022-07-24T14:27:46;100280.34;;;30.78
64184;BMP280;50485;49.768;8.636;2022-07-24T14:30:12;100279.94;;;30.79